sensor_id;sensor_type;location;lat;lon;timestamp;P1;durP1;ratioP1;P2;durP2;ratioP2
18072;SDS011;9161;47.348;9.648;2023-06-05T00:02:27;5.83;;;3.13;;
18072;SDS011;9161;47.348;9.648;2023-06-05T00:07:31;9.10;;;3.30;;
18072;SDS011;9161;47.348;9.648;2023-06-05T00:12:33;9.37;;;3.63;;
18072;SDS011;9161;47.348;9.648;2023-06-05T00:17:36;5.73;;;3.20;;
18072;SDS011;9161;47.348;9.648;2023-06-05T00:22:41;6.10;;;4.13;;
18072;SDS011;9161;47.348;9.648;2023-06-05T00:27:47;9.27;;;3.90;;
18072;SDS011;9161;47.348;9.648;2023-06-05T00:32:52;5.63;;;3.53;;
18072;SDS011;9161;47.348;9.648;2023-06-05T00:37:56;7.53;;;3.63;;
18072;SDS011;9161;47.348;9.648;2023-06-05T00:42:58;9.63;;;3.40;;
18072;SDS011;9161;47.348;9.648;2023-06-05T00:48:01;9.90;;;3.63;;
18072;SDS011;9161;47.348;9.648;2023-06-05T00:53:05;10.83;;;3.80;;
18072;SDS011;9161;47.348;9.648;2023-06-05T00:58:09;4.53;;;3.03;;
18072;SDS011;9161;47.348;9.648;2023-06-05T01:03:12;7.43;;;4.03;;
18072;SDS011;9161;47.348;9.648;2023-06-05T01:08:17;6.43;;;3.50;;
18072;SDS011;9161;47.348;9.648;2023-06-05T01:13:26;4.87;;;3.13;;
18072;SDS011;9161;47.348;9.648;2023-06-05T01:18:37;6.30;;;3.27;;
18072;SDS011;9161;47.348;9.648;2023-06-05T01:23:43;9.17;;;3.17;;
18072;SDS011;9161;47.348;9.648;2023-06-05T01:28:46;5.67;;;3.23;;
18072;SDS011;9161;47.348;9.648;2023-06-05T01:33:53;5.60;;;3.30;;
18072;SDS011;9161;47.348;9.648;2023-06-05T01:38:59;5.43;;;3.20;;
18072;SDS011;9161;47.348;9.648;2023-06-05T01:44:05;4.77;;;3.13;;
18072;SDS011;9161;47.348;9.648;2023-06-05T01:49:09;4.90;;;3.00;;
18072;SDS011;9161;47.348;9.648;2023-06-05T01:54:14;7.27;;;3.50;;
18072;SDS011;9161;47.348;9.648;2023-06-05T01:59:19;5.70;;;3.67;;
18072;SDS011;9161;47.348;9.648;2023-06-05T02:04:22;7.63;;;3.80;;
18072;SDS011;9161;47.348;9.648;2023-06-05T02:09:25;6.07;;;3.70;;
18072;SDS011;9161;47.348;9.648;2023-06-05T02:14:28;5.47;;;3.20;;
18072;SDS011;9161;47.348;9.648;2023-06-05T02:19:31;8.37;;;3.50;;
18072;SDS011;9161;47.348;9.648;2023-06-05T02:24:35;6.03;;;3.50;;
18072;SDS011;9161;47.348;9.648;2023-06-05T02:29:37;6.27;;;3.67;;
18072;SDS011;9161;47.348;9.648;2023-06-05T02:34:39;6.47;;;4.03;;
18072;SDS011;9161;47.348;9.648;2023-06-05T02:39:44;6.03;;;3.80;;
18072;SDS011;9161;47.348;9.648;2023-06-05T02:44:46;8.37;;;4.27;;
18072;SDS011;9161;47.348;9.648;2023-06-05T02:49:49;7.30;;;3.40;;
18072;SDS011;9161;47.348;9.648;2023-06-05T02:54:53;8.43;;;4.27;;
18072;SDS011;9161;47.348;9.648;2023-06-05T02:59:56;6.80;;;4.47;;
18072;SDS011;9161;47.348;9.648;2023-06-05T03:04:58;7.90;;;4.30;;
18072;SDS011;9161;47.348;9.648;2023-06-05T03:10:05;9.17;;;4.03;;
18072;SDS011;9161;47.348;9.648;2023-06-05T03:15:09;9.27;;;4.40;;
18072;SDS011;9161;47.348;9.648;2023-06-05T03:20:12;9.07;;;4.20;;
18072;SDS011;9161;47.348;9.648;2023-06-05T03:25:17;6.33;;;4.10;;
18072;SDS011;9161;47.348;9.648;2023-06-05T03:30:19;5.77;;;3.47;;
18072;SDS011;9161;47.348;9.648;2023-06-05T03:35:21;6.07;;;3.73;;
18072;SDS011;9161;47.348;9.648;2023-06-05T03:40:24;7.47;;;3.60;;
18072;SDS011;9161;47.348;9.648;2023-06-05T03:45:27;7.10;;;3.90;;
18072;SDS011;9161;47.348;9.648;2023-06-05T03:50:29;7.57;;;4.30;;
18072;SDS011;9161;47.348;9.648;2023-06-05T03:55:35;11.27;;;4.87;;
18072;SDS011;9161;47.348;9.648;2023-06-05T04:00:42;10.80;;;4.20;;
18072;SDS011;9161;47.348;9.648;2023-06-05T04:05:45;10.67;;;3.80;;
18072;SDS011;9161;47.348;9.648;2023-06-05T04:10:48;9.03;;;4.50;;
18072;SDS011;9161;47.348;9.648;2023-06-05T04:15:50;9.07;;;5.40;;
18072;SDS011;9161;47.348;9.648;2023-06-05T04:20:52;7.03;;;4.33;;
18072;SDS011;9161;47.348;9.648;2023-06-05T04:25:56;39.80;;;5.30;;
18072;SDS011;9161;47.348;9.648;2023-06-05T04:30:58;11.07;;;4.63;;
18072;SDS011;9161;47.348;9.648;2023-06-05T04:36:02;44.93;;;7.33;;
18072;SDS011;9161;47.348;9.648;2023-06-05T04:41:07;50.20;;;7.50;;
18072;SDS011;9161;47.348;9.648;2023-06-05T04:46:10;32.00;;;6.00;;
18072;SDS011;9161;47.348;9.648;2023-06-05T04:51:13;16.17;;;5.47;;
18072;SDS011;9161;47.348;9.648;2023-06-05T04:56:16;39.17;;;8.17;;
18072;SDS011;9161;47.348;9.648;2023-06-05T05:01:19;11.93;;;5.40;;
18072;SDS011;9161;47.348;9.648;2023-06-05T05:06:21;12.00;;;6.50;;
18072;SDS011;9161;47.348;9.648;2023-06-05T05:11:25;11.47;;;6.20;;
18072;SDS011;9161;47.348;9.648;2023-06-05T05:16:27;10.43;;;5.97;;
18072;SDS011;9161;47.348;9.648;2023-06-05T05:21:30;9.23;;;5.90;;
18072;SDS011;9161;47.348;9.648;2023-06-05T05:26:33;11.30;;;6.20;;
18072;SDS011;9161;47.348;9.648;2023-06-05T05:31:36;10.80;;;5.83;;
18072;SDS011;9161;47.348;9.648;2023-06-05T05:36:39;14.10;;;6.13;;
18072;SDS011;9161;47.348;9.648;2023-06-05T05:41:42;17.07;;;6.87;;
18072;SDS011;9161;47.348;9.648;2023-06-05T05:46:45;15.63;;;6.30;;
18072;SDS011;9161;47.348;9.648;2023-06-05T05:51:48;17.87;;;6.23;;
18072;SDS011;9161;47.348;9.648;2023-06-05T05:56:52;14.23;;;6.10;;
18072;SDS011;9161;47.348;9.648;2023-06-05T06:01:55;18.00;;;6.13;;
18072;SDS011;9161;47.348;9.648;2023-06-05T06:06:59;11.10;;;6.53;;
18072;SDS011;9161;47.348;9.648;2023-06-05T06:12:03;12.50;;;6.07;;
18072;SDS011;9161;47.348;9.648;2023-06-05T06:17:06;12.13;;;5.67;;
18072;SDS011;9161;47.348;9.648;2023-06-05T06:22:10;15.03;;;5.17;;
18072;SDS011;9161;47.348;9.648;2023-06-05T06:27:13;8.87;;;5.00;;
18072;SDS011;9161;47.348;9.648;2023-06-05T06:32:33;9.27;;;5.33;;
18072;SDS011;9161;47.348;9.648;2023-06-05T06:37:36;7.97;;;4.93;;
18072;SDS011;9161;47.348;9.648;2023-06-05T06:42:39;8.03;;;4.80;;
18072;SDS011;9161;47.348;9.648;2023-06-05T06:47:41;10.33;;;4.73;;
18072;SDS011;9161;47.348;9.648;2023-06-05T06:53:03;7.23;;;4.57;;
18072;SDS011;9161;47.348;9.648;2023-06-05T06:58:07;11.40;;;4.30;;
18072;SDS011;9161;47.348;9.648;2023-06-05T07:03:09;7.03;;;4.50;;
18072;SDS011;9161;47.348;9.648;2023-06-05T07:08:11;9.18;;;4.20;;
18072;SDS011;9161;47.348;9.648;2023-06-05T07:13:15;9.27;;;4.68;;
18072;SDS011;9161;47.348;9.648;2023-06-05T07:18:17;8.35;;;4.78;;
18072;SDS011;9161;47.348;9.648;2023-06-05T07:23:20;8.98;;;4.72;;
18072;SDS011;9161;47.348;9.648;2023-06-05T07:28:23;16.65;;;4.85;;
18072;SDS011;9161;47.348;9.648;2023-06-05T07:33:25;5.82;;;3.90;;
18072;SDS011;9161;47.348;9.648;2023-06-05T07:38:30;7.82;;;4.38;;
18072;SDS011;9161;47.348;9.648;2023-06-05T07:43:34;8.57;;;4.20;;
18072;SDS011;9161;47.348;9.648;2023-06-05T07:48:36;6.97;;;4.25;;
18072;SDS011;9161;47.348;9.648;2023-06-05T07:53:39;7.32;;;4.50;;
18072;SDS011;9161;47.348;9.648;2023-06-05T07:58:42;9.73;;;4.35;;
18072;SDS011;9161;47.348;9.648;2023-06-05T08:03:46;9.88;;;4.70;;
18072;SDS011;9161;47.348;9.648;2023-06-05T08:08:49;10.57;;;4.30;;
18072;SDS011;9161;47.348;9.648;2023-06-05T08:13:52;64.85;;;8.18;;
18072;SDS011;9161;47.348;9.648;2023-06-05T08:18:55;10.90;;;5.35;;
18072;SDS011;9161;47.348;9.648;2023-06-05T08:23:58;17.20;;;4.68;;
18072;SDS011;9161;47.348;9.648;2023-06-05T08:29:01;14.95;;;4.57;;
18072;SDS011;9161;47.348;9.648;2023-06-05T08:34:04;8.27;;;4.22;;
18072;SDS011;9161;47.348;9.648;2023-06-05T08:39:06;6.72;;;4.00;;
18072;SDS011;9161;47.348;9.648;2023-06-05T08:44:12;8.52;;;4.38;;
18072;SDS011;9161;47.348;9.648;2023-06-05T08:49:14;6.15;;;4.10;;
18072;SDS011;9161;47.348;9.648;2023-06-05T08:54:22;6.35;;;4.25;;
18072;SDS011;9161;47.348;9.648;2023-06-05T08:59:26;14.80;;;5.88;;
18072;SDS011;9161;47.348;9.648;2023-06-05T09:04:28;11.75;;;5.40;;
18072;SDS011;9161;47.348;9.648;2023-06-05T09:09:31;10.93;;;6.55;;
18072;SDS011;9161;47.348;9.648;2023-06-05T09:14:36;10.48;;;5.72;;
18072;SDS011;9161;47.348;9.648;2023-06-05T09:19:39;8.55;;;5.57;;
18072;SDS011;9161;47.348;9.648;2023-06-05T09:24:43;9.32;;;5.13;;
18072;SDS011;9161;47.348;9.648;2023-06-05T09:30:03;8.45;;;5.60;;
18072;SDS011;9161;47.348;9.648;2023-06-05T09:35:07;6.70;;;4.85;;
18072;SDS011;9161;47.348;9.648;2023-06-05T09:40:17;12.27;;;5.68;;
18072;SDS011;9161;47.348;9.648;2023-06-05T09:45:42;9.75;;;5.47;;
18072;SDS011;9161;47.348;9.648;2023-06-05T09:50:44;11.38;;;5.07;;
18072;SDS011;9161;47.348;9.648;2023-06-05T09:55:46;14.10;;;4.95;;
18072;SDS011;9161;47.348;9.648;2023-06-05T10:00:51;13.10;;;5.43;;
18072;SDS011;9161;47.348;9.648;2023-06-05T10:05:54;9.25;;;5.15;;
18072;SDS011;9161;47.348;9.648;2023-06-05T10:11:00;15.48;;;5.03;;
18072;SDS011;9161;47.348;9.648;2023-06-05T10:16:06;8.00;;;4.05;;
18072;SDS011;9161;47.348;9.648;2023-06-05T10:21:25;8.05;;;5.35;;
18072;SDS011;9161;47.348;9.648;2023-06-05T10:26:37;13.48;;;5.22;;
18072;SDS011;9161;47.348;9.648;2023-06-05T10:32:07;15.55;;;5.32;;
18072;SDS011;9161;47.348;9.648;2023-06-05T10:42:40;8.77;;;5.00;;
18072;SDS011;9161;47.348;9.648;2023-06-05T10:47:50;6.93;;;4.75;;
18072;SDS011;9161;47.348;9.648;2023-06-05T10:52:53;14.75;;;4.90;;
18072;SDS011;9161;47.348;9.648;2023-06-05T10:58:05;8.52;;;5.03;;
18072;SDS011;9161;47.348;9.648;2023-06-05T11:03:11;8.98;;;5.30;;
18072;SDS011;9161;47.348;9.648;2023-06-05T11:08:13;7.57;;;4.63;;
18072;SDS011;9161;47.348;9.648;2023-06-05T11:13:16;7.88;;;4.60;;
18072;SDS011;9161;47.348;9.648;2023-06-05T11:18:31;5.38;;;4.63;;
18072;SDS011;9161;47.348;9.648;2023-06-05T11:23:34;9.18;;;4.35;;
18072;SDS011;9161;47.348;9.648;2023-06-05T11:28:37;9.32;;;4.65;;
18072;SDS011;9161;47.348;9.648;2023-06-05T11:33:42;7.32;;;5.03;;
18072;SDS011;9161;47.348;9.648;2023-06-05T11:38:52;6.80;;;4.60;;
18072;SDS011;9161;47.348;9.648;2023-06-05T11:43:55;6.43;;;4.53;;
18072;SDS011;9161;47.348;9.648;2023-06-05T11:48:59;8.70;;;4.72;;
18072;SDS011;9161;47.348;9.648;2023-06-05T11:54:01;15.38;;;5.13;;
18072;SDS011;9161;47.348;9.648;2023-06-05T11:59:08;7.63;;;4.25;;
18072;SDS011;9161;47.348;9.648;2023-06-05T12:04:12;5.60;;;4.40;;
18072;SDS011;9161;47.348;9.648;2023-06-05T12:09:16;7.60;;;4.30;;
18072;SDS011;9161;47.348;9.648;2023-06-05T12:19:40;6.07;;;4.50;;
18072;SDS011;9161;47.348;9.648;2023-06-05T12:24:42;6.88;;;3.97;;
18072;SDS011;9161;47.348;9.648;2023-06-05T12:29:52;8.25;;;4.45;;
18072;SDS011;9161;47.348;9.648;2023-06-05T12:34:57;10.98;;;4.00;;
18072;SDS011;9161;47.348;9.648;2023-06-05T12:40:06;11.57;;;4.88;;
18072;SDS011;9161;47.348;9.648;2023-06-05T12:45:11;6.43;;;4.13;;
18072;SDS011;9161;47.348;9.648;2023-06-05T12:50:15;6.50;;;4.50;;
18072;SDS011;9161;47.348;9.648;2023-06-05T12:55:17;11.13;;;4.55;;
18072;SDS011;9161;47.348;9.648;2023-06-05T13:00:19;10.27;;;4.30;;
18072;SDS011;9161;47.348;9.648;2023-06-05T13:05:23;13.85;;;4.07;;
18072;SDS011;9161;47.348;9.648;2023-06-05T13:10:25;28.85;;;4.88;;
18072;SDS011;9161;47.348;9.648;2023-06-05T13:15:28;8.60;;;4.45;;
18072;SDS011;9161;47.348;9.648;2023-06-05T13:20:32;10.48;;;4.20;;
18072;SDS011;9161;47.348;9.648;2023-06-05T13:25:34;6.13;;;3.92;;
18072;SDS011;9161;47.348;9.648;2023-06-05T13:30:36;9.70;;;4.20;;
18072;SDS011;9161;47.348;9.648;2023-06-05T13:35:40;7.68;;;3.85;;
18072;SDS011;9161;47.348;9.648;2023-06-05T13:40:43;13.38;;;3.78;;
18072;SDS011;9161;47.348;9.648;2023-06-05T13:45:49;11.38;;;3.70;;
18072;SDS011;9161;47.348;9.648;2023-06-05T13:50:52;8.55;;;3.78;;
18072;SDS011;9161;47.348;9.648;2023-06-05T13:55:54;6.32;;;3.60;;
18072;SDS011;9161;47.348;9.648;2023-06-05T14:00:56;7.05;;;3.75;;
18072;SDS011;9161;47.348;9.648;2023-06-05T14:06:00;5.30;;;3.33;;
18072;SDS011;9161;47.348;9.648;2023-06-05T14:11:02;9.90;;;3.00;;
18072;SDS011;9161;47.348;9.648;2023-06-05T14:16:05;7.10;;;4.05;;
18072;SDS011;9161;47.348;9.648;2023-06-05T14:21:10;7.80;;;3.70;;
18072;SDS011;9161;47.348;9.648;2023-06-05T14:26:12;6.90;;;3.40;;
18072;SDS011;9161;47.348;9.648;2023-06-05T14:31:14;7.63;;;3.53;;
18072;SDS011;9161;47.348;9.648;2023-06-05T14:36:17;12.95;;;4.57;;
18072;SDS011;9161;47.348;9.648;2023-06-05T14:41:20;52.63;;;5.88;;
18072;SDS011;9161;47.348;9.648;2023-06-05T14:46:22;11.15;;;4.13;;
18072;SDS011;9161;47.348;9.648;2023-06-05T14:51:25;7.45;;;3.85;;
18072;SDS011;9161;47.348;9.648;2023-06-05T14:56:28;14.68;;;3.95;;
18072;SDS011;9161;47.348;9.648;2023-06-05T15:01:30;8.98;;;4.20;;
18072;SDS011;9161;47.348;9.648;2023-06-05T15:06:34;6.53;;;4.53;;
18072;SDS011;9161;47.348;9.648;2023-06-05T15:11:37;9.57;;;4.90;;
18072;SDS011;9161;47.348;9.648;2023-06-05T15:16:39;12.48;;;4.93;;
18072;SDS011;9161;47.348;9.648;2023-06-05T15:21:44;6.25;;;4.25;;
18072;SDS011;9161;47.348;9.648;2023-06-05T15:26:46;13.32;;;5.05;;
18072;SDS011;9161;47.348;9.648;2023-06-05T15:31:48;5.88;;;4.07;;
18072;SDS011;9161;47.348;9.648;2023-06-05T15:36:52;9.02;;;4.90;;
18072;SDS011;9161;47.348;9.648;2023-06-05T15:41:54;7.22;;;4.15;;
18072;SDS011;9161;47.348;9.648;2023-06-05T15:46:58;6.97;;;4.38;;
18072;SDS011;9161;47.348;9.648;2023-06-05T15:52:02;6.90;;;4.63;;
18072;SDS011;9161;47.348;9.648;2023-06-05T15:57:06;10.23;;;5.18;;
18072;SDS011;9161;47.348;9.648;2023-06-05T16:02:08;8.30;;;4.95;;
18072;SDS011;9161;47.348;9.648;2023-06-05T16:07:13;7.10;;;4.30;;
18072;SDS011;9161;47.348;9.648;2023-06-05T16:12:16;8.77;;;5.00;;
18072;SDS011;9161;47.348;9.648;2023-06-05T16:17:19;6.55;;;4.30;;
18072;SDS011;9161;47.348;9.648;2023-06-05T16:22:23;6.50;;;4.30;;
18072;SDS011;9161;47.348;9.648;2023-06-05T16:27:25;7.25;;;4.07;;
18072;SDS011;9161;47.348;9.648;2023-06-05T16:32:28;6.80;;;3.63;;
18072;SDS011;9161;47.348;9.648;2023-06-05T16:37:32;8.88;;;3.55;;
18072;SDS011;9161;47.348;9.648;2023-06-05T16:42:35;5.30;;;3.38;;
18072;SDS011;9161;47.348;9.648;2023-06-05T16:47:38;4.57;;;3.00;;
18072;SDS011;9161;47.348;9.648;2023-06-05T16:52:42;3.45;;;2.55;;
18072;SDS011;9161;47.348;9.648;2023-06-05T16:57:45;4.43;;;2.67;;
18072;SDS011;9161;47.348;9.648;2023-06-05T17:02:49;3.55;;;2.70;;
18072;SDS011;9161;47.348;9.648;2023-06-05T17:07:53;6.43;;;3.10;;
18072;SDS011;9161;47.348;9.648;2023-06-05T17:12:57;5.35;;;2.63;;
18072;SDS011;9161;47.348;9.648;2023-06-05T17:18:01;5.75;;;3.50;;
18072;SDS011;9161;47.348;9.648;2023-06-05T17:23:08;3.75;;;2.50;;
18072;SDS011;9161;47.348;9.648;2023-06-05T17:28:13;6.25;;;2.95;;
18072;SDS011;9161;47.348;9.648;2023-06-05T17:33:17;6.57;;;2.80;;
18072;SDS011;9161;47.348;9.648;2023-06-05T17:38:23;4.03;;;2.90;;
18072;SDS011;9161;47.348;9.648;2023-06-05T17:43:26;4.65;;;2.55;;
18072;SDS011;9161;47.348;9.648;2023-06-05T17:48:30;6.75;;;3.28;;
18072;SDS011;9161;47.348;9.648;2023-06-05T17:53:35;6.28;;;3.28;;
18072;SDS011;9161;47.348;9.648;2023-06-05T17:58:38;3.55;;;2.42;;
18072;SDS011;9161;47.348;9.648;2023-06-05T18:03:41;5.97;;;3.00;;
18072;SDS011;9161;47.348;9.648;2023-06-05T18:08:46;5.18;;;2.97;;
18072;SDS011;9161;47.348;9.648;2023-06-05T18:13:49;5.10;;;2.90;;
18072;SDS011;9161;47.348;9.648;2023-06-05T18:18:52;4.35;;;3.17;;
18072;SDS011;9161;47.348;9.648;2023-06-05T18:23:57;6.72;;;2.40;;
18072;SDS011;9161;47.348;9.648;2023-06-05T18:29:01;4.90;;;2.70;;
18072;SDS011;9161;47.348;9.648;2023-06-05T18:34:04;4.53;;;2.70;;
18072;SDS011;9161;47.348;9.648;2023-06-05T18:39:10;4.85;;;2.65;;
18072;SDS011;9161;47.348;9.648;2023-06-05T18:44:14;3.47;;;2.40;;
18072;SDS011;9161;47.348;9.648;2023-06-05T18:49:17;3.13;;;2.40;;
18072;SDS011;9161;47.348;9.648;2023-06-05T18:54:22;3.75;;;2.38;;
18072;SDS011;9161;47.348;9.648;2023-06-05T18:59:27;4.97;;;2.50;;
18072;SDS011;9161;47.348;9.648;2023-06-05T19:04:31;7.25;;;3.03;;
18072;SDS011;9161;47.348;9.648;2023-06-05T19:09:37;6.17;;;2.43;;
18072;SDS011;9161;47.348;9.648;2023-06-05T19:14:40;17.63;;;2.83;;
18072;SDS011;9161;47.348;9.648;2023-06-05T19:19:43;6.87;;;2.70;;
18072;SDS011;9161;47.348;9.648;2023-06-05T19:24:49;5.80;;;3.00;;
18072;SDS011;9161;47.348;9.648;2023-06-05T19:29:52;5.20;;;2.80;;
18072;SDS011;9161;47.348;9.648;2023-06-05T19:34:56;5.03;;;2.43;;
18072;SDS011;9161;47.348;9.648;2023-06-05T19:40:03;6.73;;;2.53;;
18072;SDS011;9161;47.348;9.648;2023-06-05T19:45:07;4.47;;;2.83;;
18072;SDS011;9161;47.348;9.648;2023-06-05T19:50:11;4.67;;;2.80;;
18072;SDS011;9161;47.348;9.648;2023-06-05T19:55:17;4.10;;;2.77;;
18072;SDS011;9161;47.348;9.648;2023-06-05T20:00:22;6.17;;;2.90;;
18072;SDS011;9161;47.348;9.648;2023-06-05T20:05:27;4.07;;;2.47;;
18072;SDS011;9161;47.348;9.648;2023-06-05T20:10:33;4.80;;;2.70;;
18072;SDS011;9161;47.348;9.648;2023-06-05T20:15:36;4.87;;;3.10;;
18072;SDS011;9161;47.348;9.648;2023-06-05T20:20:40;6.63;;;2.97;;
18072;SDS011;9161;47.348;9.648;2023-06-05T20:25:45;5.37;;;3.33;;
18072;SDS011;9161;47.348;9.648;2023-06-05T20:30:49;3.93;;;2.83;;
18072;SDS011;9161;47.348;9.648;2023-06-05T20:35:51;6.23;;;3.10;;
18072;SDS011;9161;47.348;9.648;2023-06-05T20:40:56;6.50;;;2.90;;
18072;SDS011;9161;47.348;9.648;2023-06-05T20:45:59;4.70;;;3.20;;
18072;SDS011;9161;47.348;9.648;2023-06-05T20:51:06;6.50;;;3.10;;
18072;SDS011;9161;47.348;9.648;2023-06-05T20:56:13;6.03;;;3.80;;
18072;SDS011;9161;47.348;9.648;2023-06-05T21:01:24;5.73;;;3.63;;
18072;SDS011;9161;47.348;9.648;2023-06-05T21:06:29;5.50;;;4.10;;
18072;SDS011;9161;47.348;9.648;2023-06-05T21:11:33;6.57;;;3.57;;
18072;SDS011;9161;47.348;9.648;2023-06-05T21:16:36;7.00;;;4.20;;
18072;SDS011;9161;47.348;9.648;2023-06-05T21:21:39;10.27;;;4.40;;
18072;SDS011;9161;47.348;9.648;2023-06-05T21:26:42;6.50;;;3.83;;
18072;SDS011;9161;47.348;9.648;2023-06-05T21:31:45;6.67;;;4.30;;
18072;SDS011;9161;47.348;9.648;2023-06-05T21:36:49;8.57;;;5.50;;
18072;SDS011;9161;47.348;9.648;2023-06-05T21:41:53;8.00;;;4.47;;
18072;SDS011;9161;47.348;9.648;2023-06-05T21:46:55;8.13;;;4.73;;
18072;SDS011;9161;47.348;9.648;2023-06-05T21:51:58;8.13;;;4.03;;
18072;SDS011;9161;47.348;9.648;2023-06-05T21:57:01;9.23;;;4.43;;
18072;SDS011;9161;47.348;9.648;2023-06-05T22:02:04;6.37;;;4.00;;
18072;SDS011;9161;47.348;9.648;2023-06-05T22:07:07;5.63;;;3.37;;
18072;SDS011;9161;47.348;9.648;2023-06-05T22:12:13;9.70;;;4.00;;
18072;SDS011;9161;47.348;9.648;2023-06-05T22:17:21;4.97;;;3.47;;
18072;SDS011;9161;47.348;9.648;2023-06-05T22:22:25;6.50;;;4.13;;
18072;SDS011;9161;47.348;9.648;2023-06-05T22:27:29;5.30;;;3.33;;
18072;SDS011;9161;47.348;9.648;2023-06-05T22:32:31;8.73;;;4.10;;
18072;SDS011;9161;47.348;9.648;2023-06-05T22:37:36;9.17;;;4.20;;
18072;SDS011;9161;47.348;9.648;2023-06-05T22:42:42;7.80;;;3.57;;
18072;SDS011;9161;47.348;9.648;2023-06-05T22:47:45;9.30;;;3.73;;
18072;SDS011;9161;47.348;9.648;2023-06-05T22:52:48;9.17;;;4.60;;
18072;SDS011;9161;47.348;9.648;2023-06-05T22:57:53;7.43;;;4.70;;
18072;SDS011;9161;47.348;9.648;2023-06-05T23:02:55;6.93;;;4.23;;
18072;SDS011;9161;47.348;9.648;2023-06-05T23:08:15;8.17;;;4.57;;
18072;SDS011;9161;47.348;9.648;2023-06-05T23:13:21;7.47;;;4.20;;
18072;SDS011;9161;47.348;9.648;2023-06-05T23:18:23;7.53;;;4.17;;
18072;SDS011;9161;47.348;9.648;2023-06-05T23:23:26;8.77;;;4.40;;
18072;SDS011;9161;47.348;9.648;2023-06-05T23:28:29;8.60;;;4.37;;
18072;SDS011;9161;47.348;9.648;2023-06-05T23:33:31;6.90;;;4.33;;
18072;SDS011;9161;47.348;9.648;2023-06-05T23:38:34;7.60;;;4.10;;
18072;SDS011;9161;47.348;9.648;2023-06-05T23:43:38;6.93;;;4.00;;
18072;SDS011;9161;47.348;9.648;2023-06-05T23:48:40;6.17;;;3.60;;
18072;SDS011;9161;47.348;9.648;2023-06-05T23:53:49;6.30;;;3.60;;
18072;SDS011;9161;47.348;9.648;2023-06-05T23:58:54;5.63;;;3.63;;
